sensor_id;sensor_type;location;lat;lon;timestamp;P1;durP1;ratioP1;P2;durP2;ratioP2
51304;SDS011;37392;50.964;6.952;2023-12-20T00:02:05;19.42;;;11.95;;
51304;SDS011;37392;50.964;6.952;2023-12-20T00:04:31;18.98;;;11.57;;
51304;SDS011;37392;50.964;6.952;2023-12-20T00:06:56;18.55;;;12.15;;
51304;SDS011;37392;50.964;6.952;2023-12-20T00:09:22;20.27;;;11.73;;
51304;SDS011;37392;50.964;6.952;2023-12-20T00:11:47;21.33;;;12.68;;
51304;SDS011;37392;50.964;6.952;2023-12-20T00:14:13;17.13;;;11.77;;
51304;SDS011;37392;50.964;6.952;2023-12-20T00:16:38;22.00;;;11.25;;
51304;SDS011;37392;50.964;6.952;2023-12-20T00:19:04;21.25;;;11.75;;
51304;SDS011;37392;50.964;6.952;2023-12-20T00:21:29;23.10;;;11.70;;
51304;SDS011;37392;50.964;6.952;2023-12-20T00:23:55;15.25;;;10.82;;
51304;SDS011;37392;50.964;6.952;2023-12-20T00:26:20;17.45;;;10.73;;
51304;SDS011;37392;50.964;6.952;2023-12-20T00:28:46;15.70;;;10.35;;
51304;SDS011;37392;50.964;6.952;2023-12-20T00:31:11;16.35;;;11.43;;
51304;SDS011;37392;50.964;6.952;2023-12-20T00:33:37;13.25;;;8.65;;
51304;SDS011;37392;50.964;6.952;2023-12-20T00:36:04;14.70;;;10.63;;
51304;SDS011;37392;50.964;6.952;2023-12-20T00:38:30;14.48;;;9.50;;
51304;SDS011;37392;50.964;6.952;2023-12-20T00:40:56;11.65;;;7.55;;
51304;SDS011;37392;50.964;6.952;2023-12-20T00:43:21;10.68;;;6.63;;
51304;SDS011;37392;50.964;6.952;2023-12-20T00:45:47;8.85;;;6.57;;
51304;SDS011;37392;50.964;6.952;2023-12-20T00:48:12;11.05;;;5.60;;
51304;SDS011;37392;50.964;6.952;2023-12-20T00:50:38;14.15;;;7.05;;
51304;SDS011;37392;50.964;6.952;2023-12-20T00:53:03;12.02;;;6.43;;
51304;SDS011;37392;50.964;6.952;2023-12-20T00:55:29;11.55;;;6.80;;
51304;SDS011;37392;50.964;6.952;2023-12-20T00:57:54;11.50;;;6.05;;
51304;SDS011;37392;50.964;6.952;2023-12-20T01:00:20;12.00;;;5.35;;
51304;SDS011;37392;50.964;6.952;2023-12-20T01:02:46;8.60;;;5.63;;
51304;SDS011;37392;50.964;6.952;2023-12-20T01:05:14;17.73;;;5.07;;
51304;SDS011;37392;50.964;6.952;2023-12-20T01:07:39;10.27;;;4.72;;
51304;SDS011;37392;50.964;6.952;2023-12-20T01:10:05;7.78;;;4.57;;
51304;SDS011;37392;50.964;6.952;2023-12-20T01:12:31;6.75;;;3.90;;
51304;SDS011;37392;50.964;6.952;2023-12-20T01:14:56;9.38;;;4.43;;
51304;SDS011;37392;50.964;6.952;2023-12-20T01:17:23;14.68;;;4.85;;
51304;SDS011;37392;50.964;6.952;2023-12-20T01:19:49;10.40;;;4.63;;
51304;SDS011;37392;50.964;6.952;2023-12-20T01:22:14;8.18;;;4.18;;
51304;SDS011;37392;50.964;6.952;2023-12-20T01:24:40;10.95;;;4.88;;
51304;SDS011;37392;50.964;6.952;2023-12-20T01:27:05;8.50;;;4.70;;
51304;SDS011;37392;50.964;6.952;2023-12-20T01:29:30;13.60;;;6.57;;
51304;SDS011;37392;50.964;6.952;2023-12-20T01:31:56;13.73;;;6.28;;
51304;SDS011;37392;50.964;6.952;2023-12-20T01:34:22;13.32;;;7.35;;
51304;SDS011;37392;50.964;6.952;2023-12-20T01:36:47;21.10;;;6.82;;
51304;SDS011;37392;50.964;6.952;2023-12-20T01:39:13;13.30;;;7.88;;
51304;SDS011;37392;50.964;6.952;2023-12-20T01:41:38;17.65;;;8.35;;
51304;SDS011;37392;50.964;6.952;2023-12-20T01:44:04;24.38;;;11.65;;
51304;SDS011;37392;50.964;6.952;2023-12-20T01:46:29;23.83;;;11.40;;
51304;SDS011;37392;50.964;6.952;2023-12-20T01:48:55;27.10;;;13.35;;
51304;SDS011;37392;50.964;6.952;2023-12-20T01:51:21;35.17;;;15.23;;
51304;SDS011;37392;50.964;6.952;2023-12-20T01:53:47;28.92;;;13.43;;
51304;SDS011;37392;50.964;6.952;2023-12-20T01:56:14;46.10;;;15.85;;
51304;SDS011;37392;50.964;6.952;2023-12-20T01:58:44;32.15;;;14.00;;
51304;SDS011;37392;50.964;6.952;2023-12-20T02:01:11;34.65;;;15.15;;
51304;SDS011;37392;50.964;6.952;2023-12-20T02:03:38;34.53;;;15.00;;
51304;SDS011;37392;50.964;6.952;2023-12-20T02:06:07;42.08;;;16.23;;
51304;SDS011;37392;50.964;6.952;2023-12-20T02:08:34;37.70;;;16.17;;
51304;SDS011;37392;50.964;6.952;2023-12-20T02:11:00;36.80;;;14.48;;
51304;SDS011;37392;50.964;6.952;2023-12-20T02:13:26;37.38;;;15.38;;
51304;SDS011;37392;50.964;6.952;2023-12-20T02:15:52;30.02;;;13.40;;
51304;SDS011;37392;50.964;6.952;2023-12-20T02:18:17;35.20;;;15.43;;
51304;SDS011;37392;50.964;6.952;2023-12-20T02:20:43;29.60;;;13.90;;
51304;SDS011;37392;50.964;6.952;2023-12-20T02:23:09;32.47;;;11.32;;
51304;SDS011;37392;50.964;6.952;2023-12-20T02:25:35;23.73;;;12.23;;
51304;SDS011;37392;50.964;6.952;2023-12-20T02:28:00;37.83;;;11.25;;
51304;SDS011;37392;50.964;6.952;2023-12-20T02:30:26;25.40;;;9.43;;
51304;SDS011;37392;50.964;6.952;2023-12-20T02:32:52;34.67;;;9.15;;
51304;SDS011;37392;50.964;6.952;2023-12-20T02:35:19;22.70;;;9.10;;
51304;SDS011;37392;50.964;6.952;2023-12-20T02:37:45;27.30;;;8.82;;
51304;SDS011;37392;50.964;6.952;2023-12-20T02:40:10;32.20;;;7.72;;
51304;SDS011;37392;50.964;6.952;2023-12-20T02:42:36;28.92;;;7.68;;
51304;SDS011;37392;50.964;6.952;2023-12-20T02:45:02;26.98;;;10.35;;
51304;SDS011;37392;50.964;6.952;2023-12-20T02:47:27;27.23;;;7.45;;
51304;SDS011;37392;50.964;6.952;2023-12-20T02:49:54;27.92;;;6.15;;
51304;SDS011;37392;50.964;6.952;2023-12-20T02:52:20;20.30;;;6.60;;
51304;SDS011;37392;50.964;6.952;2023-12-20T02:54:48;32.42;;;5.68;;
51304;SDS011;37392;50.964;6.952;2023-12-20T02:57:13;20.92;;;5.85;;
51304;SDS011;37392;50.964;6.952;2023-12-20T02:59:39;20.95;;;5.18;;
51304;SDS011;37392;50.964;6.952;2023-12-20T03:02:04;18.00;;;6.25;;
51304;SDS011;37392;50.964;6.952;2023-12-20T03:04:30;14.68;;;4.95;;
51304;SDS011;37392;50.964;6.952;2023-12-20T03:06:55;33.22;;;4.93;;
51304;SDS011;37392;50.964;6.952;2023-12-20T03:09:21;31.55;;;5.35;;
51304;SDS011;37392;50.964;6.952;2023-12-20T03:11:46;22.33;;;4.80;;
51304;SDS011;37392;50.964;6.952;2023-12-20T03:14:12;20.88;;;4.20;;
51304;SDS011;37392;50.964;6.952;2023-12-20T03:16:37;22.50;;;4.25;;
51304;SDS011;37392;50.964;6.952;2023-12-20T03:19:03;27.30;;;4.47;;
51304;SDS011;37392;50.964;6.952;2023-12-20T03:21:28;22.40;;;3.88;;
51304;SDS011;37392;50.964;6.952;2023-12-20T03:23:54;28.15;;;3.75;;
51304;SDS011;37392;50.964;6.952;2023-12-20T03:26:19;23.15;;;3.53;;
51304;SDS011;37392;50.964;6.952;2023-12-20T03:28:45;18.60;;;3.42;;
51304;SDS011;37392;50.964;6.952;2023-12-20T03:31:10;15.05;;;2.95;;
51304;SDS011;37392;50.964;6.952;2023-12-20T03:33:36;21.42;;;4.90;;
51304;SDS011;37392;50.964;6.952;2023-12-20T03:36:01;18.35;;;3.58;;
51304;SDS011;37392;50.964;6.952;2023-12-20T03:38:27;15.77;;;3.58;;
51304;SDS011;37392;50.964;6.952;2023-12-20T03:40:52;29.60;;;5.40;;
51304;SDS011;37392;50.964;6.952;2023-12-20T03:43:18;31.70;;;3.67;;
51304;SDS011;37392;50.964;6.952;2023-12-20T03:45:43;19.02;;;4.60;;
51304;SDS011;37392;50.964;6.952;2023-12-20T03:48:09;17.65;;;3.95;;
51304;SDS011;37392;50.964;6.952;2023-12-20T03:50:35;13.82;;;3.20;;
51304;SDS011;37392;50.964;6.952;2023-12-20T03:53:00;21.85;;;4.30;;
51304;SDS011;37392;50.964;6.952;2023-12-20T03:55:26;25.33;;;3.88;;
51304;SDS011;37392;50.964;6.952;2023-12-20T03:57:52;24.08;;;4.82;;
51304;SDS011;37392;50.964;6.952;2023-12-20T04:00:18;28.63;;;4.88;;
51304;SDS011;37392;50.964;6.952;2023-12-20T04:02:43;24.48;;;4.20;;
51304;SDS011;37392;50.964;6.952;2023-12-20T04:05:09;19.20;;;3.80;;
51304;SDS011;37392;50.964;6.952;2023-12-20T04:07:35;22.95;;;3.67;;
51304;SDS011;37392;50.964;6.952;2023-12-20T04:10:01;29.90;;;4.60;;
51304;SDS011;37392;50.964;6.952;2023-12-20T04:12:28;18.10;;;3.63;;
51304;SDS011;37392;50.964;6.952;2023-12-20T04:14:54;24.77;;;4.63;;
51304;SDS011;37392;50.964;6.952;2023-12-20T04:17:20;18.85;;;4.43;;
51304;SDS011;37392;50.964;6.952;2023-12-20T04:19:47;37.53;;;4.72;;
51304;SDS011;37392;50.964;6.952;2023-12-20T04:22:13;22.15;;;5.05;;
51304;SDS011;37392;50.964;6.952;2023-12-20T04:24:39;15.73;;;4.13;;
51304;SDS011;37392;50.964;6.952;2023-12-20T04:27:07;23.45;;;4.43;;
51304;SDS011;37392;50.964;6.952;2023-12-20T04:29:33;24.10;;;4.50;;
51304;SDS011;37392;50.964;6.952;2023-12-20T04:31:58;18.88;;;4.47;;
51304;SDS011;37392;50.964;6.952;2023-12-20T04:34:24;27.00;;;4.82;;
51304;SDS011;37392;50.964;6.952;2023-12-20T04:36:50;17.63;;;4.78;;
51304;SDS011;37392;50.964;6.952;2023-12-20T04:39:15;25.70;;;5.32;;
51304;SDS011;37392;50.964;6.952;2023-12-20T04:41:41;28.17;;;4.97;;
51304;SDS011;37392;50.964;6.952;2023-12-20T04:44:06;22.17;;;5.80;;
51304;SDS011;37392;50.964;6.952;2023-12-20T04:46:32;31.73;;;4.80;;
51304;SDS011;37392;50.964;6.952;2023-12-20T04:48:57;22.75;;;5.07;;
51304;SDS011;37392;50.964;6.952;2023-12-20T04:51:23;27.73;;;5.50;;
51304;SDS011;37392;50.964;6.952;2023-12-20T04:53:49;23.25;;;6.40;;
51304;SDS011;37392;50.964;6.952;2023-12-20T04:56:15;26.10;;;4.65;;
51304;SDS011;37392;50.964;6.952;2023-12-20T04:58:41;19.60;;;4.50;;
51304;SDS011;37392;50.964;6.952;2023-12-20T05:01:07;32.30;;;5.43;;
51304;SDS011;37392;50.964;6.952;2023-12-20T05:03:34;27.60;;;6.38;;
51304;SDS011;37392;50.964;6.952;2023-12-20T05:06:00;22.55;;;5.32;;
51304;SDS011;37392;50.964;6.952;2023-12-20T05:08:25;25.77;;;5.35;;
51304;SDS011;37392;50.964;6.952;2023-12-20T05:10:52;35.25;;;6.35;;
51304;SDS011;37392;50.964;6.952;2023-12-20T05:13:21;30.53;;;5.00;;
51304;SDS011;37392;50.964;6.952;2023-12-20T05:15:46;26.95;;;4.70;;
51304;SDS011;37392;50.964;6.952;2023-12-20T05:18:12;30.65;;;6.22;;
51304;SDS011;37392;50.964;6.952;2023-12-20T05:20:38;26.40;;;5.05;;
51304;SDS011;37392;50.964;6.952;2023-12-20T05:23:04;25.33;;;5.72;;
51304;SDS011;37392;50.964;6.952;2023-12-20T05:25:30;35.75;;;7.03;;
51304;SDS011;37392;50.964;6.952;2023-12-20T05:27:56;28.02;;;5.35;;
51304;SDS011;37392;50.964;6.952;2023-12-20T05:30:21;19.60;;;6.18;;
51304;SDS011;37392;50.964;6.952;2023-12-20T05:32:47;20.23;;;4.80;;
51304;SDS011;37392;50.964;6.952;2023-12-20T05:35:12;24.88;;;5.07;;
51304;SDS011;37392;50.964;6.952;2023-12-20T05:37:38;32.42;;;5.00;;
51304;SDS011;37392;50.964;6.952;2023-12-20T05:40:04;25.25;;;4.90;;
51304;SDS011;37392;50.964;6.952;2023-12-20T05:42:31;15.63;;;4.82;;
51304;SDS011;37392;50.964;6.952;2023-12-20T05:44:56;39.88;;;5.72;;
51304;SDS011;37392;50.964;6.952;2023-12-20T05:47:22;27.08;;;4.78;;
51304;SDS011;37392;50.964;6.952;2023-12-20T05:49:47;26.42;;;5.32;;
51304;SDS011;37392;50.964;6.952;2023-12-20T05:52:13;28.73;;;4.82;;
51304;SDS011;37392;50.964;6.952;2023-12-20T05:54:38;19.58;;;5.22;;
51304;SDS011;37392;50.964;6.952;2023-12-20T05:57:04;23.65;;;6.15;;
51304;SDS011;37392;50.964;6.952;2023-12-20T05:59:33;20.40;;;5.05;;
51304;SDS011;37392;50.964;6.952;2023-12-20T06:02:02;31.02;;;7.30;;
51304;SDS011;37392;50.964;6.952;2023-12-20T06:04:29;48.80;;;7.13;;
51304;SDS011;37392;50.964;6.952;2023-12-20T06:06:55;28.20;;;5.93;;
51304;SDS011;37392;50.964;6.952;2023-12-20T06:09:21;28.70;;;6.45;;
51304;SDS011;37392;50.964;6.952;2023-12-20T06:11:46;12.68;;;3.95;;
51304;SDS011;37392;50.964;6.952;2023-12-20T06:14:12;23.08;;;5.68;;
51304;SDS011;37392;50.964;6.952;2023-12-20T06:16:37;29.45;;;5.35;;
51304;SDS011;37392;50.964;6.952;2023-12-20T06:19:03;30.55;;;9.35;;
51304;SDS011;37392;50.964;6.952;2023-12-20T06:21:28;27.15;;;6.88;;
51304;SDS011;37392;50.964;6.952;2023-12-20T06:23:54;34.40;;;7.15;;
51304;SDS011;37392;50.964;6.952;2023-12-20T06:26:20;34.85;;;7.28;;
51304;SDS011;37392;50.964;6.952;2023-12-20T06:28:45;24.83;;;5.35;;
51304;SDS011;37392;50.964;6.952;2023-12-20T06:31:11;23.98;;;5.30;;
51304;SDS011;37392;50.964;6.952;2023-12-20T06:33:36;30.13;;;5.55;;
51304;SDS011;37392;50.964;6.952;2023-12-20T06:36:05;33.90;;;5.82;;
51304;SDS011;37392;50.964;6.952;2023-12-20T06:38:31;17.88;;;4.75;;
51304;SDS011;37392;50.964;6.952;2023-12-20T06:40:57;17.58;;;4.13;;
51304;SDS011;37392;50.964;6.952;2023-12-20T06:43:23;24.10;;;4.38;;
51304;SDS011;37392;50.964;6.952;2023-12-20T06:45:49;20.17;;;4.78;;
51304;SDS011;37392;50.964;6.952;2023-12-20T06:48:15;21.10;;;5.28;;
51304;SDS011;37392;50.964;6.952;2023-12-20T06:50:41;30.95;;;8.07;;
51304;SDS011;37392;50.964;6.952;2023-12-20T06:53:07;25.67;;;5.50;;
51304;SDS011;37392;50.964;6.952;2023-12-20T06:55:36;22.38;;;5.30;;
51304;SDS011;37392;50.964;6.952;2023-12-20T06:58:02;19.03;;;4.90;;
51304;SDS011;37392;50.964;6.952;2023-12-20T07:00:29;28.00;;;6.82;;
51304;SDS011;37392;50.964;6.952;2023-12-20T07:02:55;23.17;;;5.65;;
51304;SDS011;37392;50.964;6.952;2023-12-20T07:05:21;30.55;;;6.30;;
51304;SDS011;37392;50.964;6.952;2023-12-20T07:07:47;21.00;;;5.40;;
51304;SDS011;37392;50.964;6.952;2023-12-20T07:10:13;19.48;;;4.40;;
51304;SDS011;37392;50.964;6.952;2023-12-20T07:12:39;19.65;;;5.40;;
51304;SDS011;37392;50.964;6.952;2023-12-20T07:15:04;44.42;;;4.53;;
51304;SDS011;37392;50.964;6.952;2023-12-20T07:17:32;34.50;;;5.28;;
51304;SDS011;37392;50.964;6.952;2023-12-20T07:19:58;23.92;;;4.72;;
51304;SDS011;37392;50.964;6.952;2023-12-20T07:22:28;12.55;;;4.63;;
51304;SDS011;37392;50.964;6.952;2023-12-20T07:24:56;23.73;;;5.28;;
51304;SDS011;37392;50.964;6.952;2023-12-20T07:27:23;29.90;;;6.50;;
51304;SDS011;37392;50.964;6.952;2023-12-20T07:29:49;32.58;;;5.32;;
51304;SDS011;37392;50.964;6.952;2023-12-20T07:32:14;21.58;;;4.97;;
51304;SDS011;37392;50.964;6.952;2023-12-20T07:34:40;17.10;;;5.65;;
51304;SDS011;37392;50.964;6.952;2023-12-20T07:37:05;32.55;;;4.75;;
51304;SDS011;37392;50.964;6.952;2023-12-20T07:39:31;23.50;;;5.13;;
51304;SDS011;37392;50.964;6.952;2023-12-20T07:41:56;24.40;;;5.50;;
51304;SDS011;37392;50.964;6.952;2023-12-20T07:44:22;23.50;;;5.95;;
51304;SDS011;37392;50.964;6.952;2023-12-20T07:46:48;34.00;;;5.82;;
51304;SDS011;37392;50.964;6.952;2023-12-20T07:49:13;22.10;;;5.88;;
51304;SDS011;37392;50.964;6.952;2023-12-20T07:51:39;24.23;;;6.15;;
51304;SDS011;37392;50.964;6.952;2023-12-20T07:54:04;34.03;;;7.00;;
51304;SDS011;37392;50.964;6.952;2023-12-20T07:56:30;28.98;;;6.30;;
51304;SDS011;37392;50.964;6.952;2023-12-20T07:58:56;30.48;;;6.93;;
51304;SDS011;37392;50.964;6.952;2023-12-20T08:01:22;24.25;;;5.80;;
51304;SDS011;37392;50.964;6.952;2023-12-20T08:03:48;29.67;;;6.75;;
51304;SDS011;37392;50.964;6.952;2023-12-20T08:06:14;23.17;;;5.72;;
51304;SDS011;37392;50.964;6.952;2023-12-20T08:08:42;37.55;;;6.85;;
51304;SDS011;37392;50.964;6.952;2023-12-20T08:11:08;27.55;;;5.88;;
51304;SDS011;37392;50.964;6.952;2023-12-20T08:13:33;22.45;;;6.07;;
51304;SDS011;37392;50.964;6.952;2023-12-20T08:15:59;24.25;;;5.88;;
51304;SDS011;37392;50.964;6.952;2023-12-20T08:18:24;23.00;;;5.53;;
51304;SDS011;37392;50.964;6.952;2023-12-20T08:20:50;37.25;;;5.95;;
51304;SDS011;37392;50.964;6.952;2023-12-20T08:23:18;26.60;;;5.80;;
51304;SDS011;37392;50.964;6.952;2023-12-20T08:25:45;27.83;;;6.68;;
51304;SDS011;37392;50.964;6.952;2023-12-20T08:28:12;24.10;;;4.97;;
51304;SDS011;37392;50.964;6.952;2023-12-20T08:30:37;25.25;;;5.88;;
51304;SDS011;37392;50.964;6.952;2023-12-20T08:33:04;29.38;;;5.82;;
51304;SDS011;37392;50.964;6.952;2023-12-20T08:35:32;27.80;;;5.75;;
51304;SDS011;37392;50.964;6.952;2023-12-20T08:37:58;27.40;;;5.75;;
51304;SDS011;37392;50.964;6.952;2023-12-20T08:40:26;25.15;;;6.30;;
51304;SDS011;37392;50.964;6.952;2023-12-20T08:42:52;39.80;;;5.82;;
51304;SDS011;37392;50.964;6.952;2023-12-20T08:45:17;26.13;;;6.43;;
51304;SDS011;37392;50.964;6.952;2023-12-20T08:47:43;22.85;;;6.28;;
51304;SDS011;37392;50.964;6.952;2023-12-20T08:50:10;29.30;;;5.30;;
51304;SDS011;37392;50.964;6.952;2023-12-20T08:52:36;37.80;;;5.88;;
51304;SDS011;37392;50.964;6.952;2023-12-20T08:55:01;24.27;;;6.28;;
51304;SDS011;37392;50.964;6.952;2023-12-20T08:57:27;21.67;;;5.53;;
51304;SDS011;37392;50.964;6.952;2023-12-20T08:59:53;21.08;;;5.97;;
51304;SDS011;37392;50.964;6.952;2023-12-20T09:02:18;28.30;;;5.63;;
51304;SDS011;37392;50.964;6.952;2023-12-20T09:04:44;42.55;;;6.75;;
51304;SDS011;37392;50.964;6.952;2023-12-20T09:07:22;19.70;;;5.22;;
51304;SDS011;37392;50.964;6.952;2023-12-20T09:09:48;41.15;;;10.20;;
51304;SDS011;37392;50.964;6.952;2023-12-20T09:12:14;26.92;;;6.97;;
51304;SDS011;37392;50.964;6.952;2023-12-20T09:14:40;23.45;;;5.22;;
51304;SDS011;37392;50.964;6.952;2023-12-20T09:17:05;35.25;;;5.78;;
51304;SDS011;37392;50.964;6.952;2023-12-20T09:19:33;21.55;;;4.72;;
51304;SDS011;37392;50.964;6.952;2023-12-20T09:21:59;26.70;;;5.35;;
51304;SDS011;37392;50.964;6.952;2023-12-20T09:24:24;27.15;;;5.75;;
51304;SDS011;37392;50.964;6.952;2023-12-20T09:26:50;25.17;;;6.10;;
51304;SDS011;37392;50.964;6.952;2023-12-20T09:29:15;25.13;;;7.38;;
51304;SDS011;37392;50.964;6.952;2023-12-20T09:31:42;27.58;;;5.35;;
51304;SDS011;37392;50.964;6.952;2023-12-20T09:34:09;22.58;;;5.38;;
51304;SDS011;37392;50.964;6.952;2023-12-20T09:36:34;28.55;;;5.50;;
51304;SDS011;37392;50.964;6.952;2023-12-20T09:39:01;24.85;;;5.28;;
51304;SDS011;37392;50.964;6.952;2023-12-20T09:41:28;24.50;;;6.40;;
51304;SDS011;37392;50.964;6.952;2023-12-20T09:44:02;24.40;;;6.22;;
51304;SDS011;37392;50.964;6.952;2023-12-20T09:46:28;28.02;;;4.97;;
51304;SDS011;37392;50.964;6.952;2023-12-20T09:48:59;30.92;;;8.43;;
51304;SDS011;37392;50.964;6.952;2023-12-20T09:51:26;28.70;;;4.95;;
51304;SDS011;37392;50.964;6.952;2023-12-20T09:53:54;16.15;;;4.55;;
51304;SDS011;37392;50.964;6.952;2023-12-20T09:56:22;22.15;;;5.07;;
51304;SDS011;37392;50.964;6.952;2023-12-20T09:58:49;42.33;;;5.80;;
51304;SDS011;37392;50.964;6.952;2023-12-20T10:01:15;21.90;;;4.63;;
51304;SDS011;37392;50.964;6.952;2023-12-20T10:03:41;18.38;;;4.53;;
51304;SDS011;37392;50.964;6.952;2023-12-20T10:06:07;24.85;;;4.63;;
51304;SDS011;37392;50.964;6.952;2023-12-20T10:08:34;26.35;;;4.85;;
51304;SDS011;37392;50.964;6.952;2023-12-20T10:10:59;35.08;;;5.55;;
51304;SDS011;37392;50.964;6.952;2023-12-20T10:13:28;27.83;;;5.57;;
51304;SDS011;37392;50.964;6.952;2023-12-20T10:15:54;18.30;;;4.97;;
51304;SDS011;37392;50.964;6.952;2023-12-20T10:18:21;24.05;;;4.78;;
51304;SDS011;37392;50.964;6.952;2023-12-20T10:20:49;27.20;;;5.13;;
51304;SDS011;37392;50.964;6.952;2023-12-20T10:23:15;31.00;;;5.18;;
51304;SDS011;37392;50.964;6.952;2023-12-20T10:25:41;24.85;;;4.32;;
51304;SDS011;37392;50.964;6.952;2023-12-20T10:28:16;25.63;;;4.82;;
51304;SDS011;37392;50.964;6.952;2023-12-20T10:33:13;28.00;;;4.47;;
51304;SDS011;37392;50.964;6.952;2023-12-20T10:35:39;26.92;;;5.65;;
51304;SDS011;37392;50.964;6.952;2023-12-20T10:38:06;21.27;;;4.53;;
51304;SDS011;37392;50.964;6.952;2023-12-20T10:40:35;19.52;;;4.25;;
51304;SDS011;37392;50.964;6.952;2023-12-20T10:43:02;14.80;;;4.38;;
51304;SDS011;37392;50.964;6.952;2023-12-20T10:45:28;31.13;;;4.45;;
51304;SDS011;37392;50.964;6.952;2023-12-20T10:47:54;25.58;;;5.85;;
51304;SDS011;37392;50.964;6.952;2023-12-20T10:50:21;22.15;;;4.75;;
51304;SDS011;37392;50.964;6.952;2023-12-20T10:52:47;22.15;;;4.80;;
51304;SDS011;37392;50.964;6.952;2023-12-20T10:55:13;26.85;;;4.68;;
51304;SDS011;37392;50.964;6.952;2023-12-20T10:57:39;28.17;;;4.35;;
51304;SDS011;37392;50.964;6.952;2023-12-20T11:00:05;21.20;;;5.35;;
51304;SDS011;37392;50.964;6.952;2023-12-20T11:02:38;20.00;;;3.70;;
51304;SDS011;37392;50.964;6.952;2023-12-20T11:05:06;17.02;;;4.40;;
51304;SDS011;37392;50.964;6.952;2023-12-20T11:07:58;26.67;;;5.30;;
51304;SDS011;37392;50.964;6.952;2023-12-20T11:16:21;20.40;;;4.32;;
51304;SDS011;37392;50.964;6.952;2023-12-20T11:18:47;16.27;;;4.68;;
51304;SDS011;37392;50.964;6.952;2023-12-20T11:21:12;15.60;;;4.50;;
51304;SDS011;37392;50.964;6.952;2023-12-20T11:23:39;17.27;;;4.00;;
51304;SDS011;37392;50.964;6.952;2023-12-20T11:26:07;23.15;;;4.93;;
51304;SDS011;37392;50.964;6.952;2023-12-20T11:28:33;17.73;;;5.25;;
51304;SDS011;37392;50.964;6.952;2023-12-20T11:31:00;29.08;;;4.30;;
51304;SDS011;37392;50.964;6.952;2023-12-20T11:33:31;24.30;;;5.22;;
51304;SDS011;37392;50.964;6.952;2023-12-20T11:36:12;24.67;;;4.53;;
51304;SDS011;37392;50.964;6.952;2023-12-20T11:38:49;27.48;;;3.55;;
51304;SDS011;37392;50.964;6.952;2023-12-20T11:41:22;22.65;;;3.53;;
51304;SDS011;37392;50.964;6.952;2023-12-20T11:43:55;18.45;;;3.67;;
51304;SDS011;37392;50.964;6.952;2023-12-20T11:46:21;13.52;;;3.42;;
51304;SDS011;37392;50.964;6.952;2023-12-20T11:48:47;16.08;;;3.80;;
51304;SDS011;37392;50.964;6.952;2023-12-20T11:51:13;23.98;;;5.65;;
51304;SDS011;37392;50.964;6.952;2023-12-20T11:53:39;18.58;;;4.20;;
51304;SDS011;37392;50.964;6.952;2023-12-20T11:56:07;15.07;;;3.47;;
51304;SDS011;37392;50.964;6.952;2023-12-20T11:58:33;20.85;;;3.65;;
51304;SDS011;37392;50.964;6.952;2023-12-20T12:00:59;24.27;;;6.95;;
51304;SDS011;37392;50.964;6.952;2023-12-20T12:03:27;23.77;;;4.03;;
51304;SDS011;37392;50.964;6.952;2023-12-20T12:05:53;21.85;;;4.65;;
51304;SDS011;37392;50.964;6.952;2023-12-20T12:08:18;17.67;;;3.53;;
51304;SDS011;37392;50.964;6.952;2023-12-20T12:10:44;18.17;;;3.33;;
51304;SDS011;37392;50.964;6.952;2023-12-20T12:13:10;18.50;;;3.60;;
51304;SDS011;37392;50.964;6.952;2023-12-20T12:15:37;28.02;;;4.50;;
51304;SDS011;37392;50.964;6.952;2023-12-20T12:18:03;22.88;;;4.15;;
51304;SDS011;37392;50.964;6.952;2023-12-20T12:20:30;17.25;;;4.75;;
51304;SDS011;37392;50.964;6.952;2023-12-20T12:23:02;18.65;;;4.30;;
51304;SDS011;37392;50.964;6.952;2023-12-20T12:25:32;24.75;;;4.53;;
51304;SDS011;37392;50.964;6.952;2023-12-20T12:28:01;23.17;;;3.67;;
51304;SDS011;37392;50.964;6.952;2023-12-20T12:30:27;28.60;;;5.03;;
51304;SDS011;37392;50.964;6.952;2023-12-20T12:32:53;20.52;;;4.07;;
51304;SDS011;37392;50.964;6.952;2023-12-20T12:35:21;26.17;;;5.40;;
51304;SDS011;37392;50.964;6.952;2023-12-20T12:37:47;26.88;;;4.82;;
51304;SDS011;37392;50.964;6.952;2023-12-20T12:42:40;17.65;;;4.85;;
51304;SDS011;37392;50.964;6.952;2023-12-20T12:45:08;27.73;;;5.25;;
51304;SDS011;37392;50.964;6.952;2023-12-20T12:47:34;19.40;;;2.97;;
51304;SDS011;37392;50.964;6.952;2023-12-20T12:50:00;26.73;;;4.65;;
51304;SDS011;37392;50.964;6.952;2023-12-20T12:52:26;19.42;;;5.97;;
51304;SDS011;37392;50.964;6.952;2023-12-20T12:54:52;16.58;;;4.10;;
51304;SDS011;37392;50.964;6.952;2023-12-20T12:57:18;23.27;;;3.70;;
51304;SDS011;37392;50.964;6.952;2023-12-20T12:59:45;18.25;;;4.82;;
51304;SDS011;37392;50.964;6.952;2023-12-20T13:02:14;22.27;;;4.22;;
51304;SDS011;37392;50.964;6.952;2023-12-20T13:04:41;18.10;;;4.35;;
51304;SDS011;37392;50.964;6.952;2023-12-20T13:07:07;18.08;;;4.15;;
51304;SDS011;37392;50.964;6.952;2023-12-20T13:09:37;20.10;;;3.27;;
51304;SDS011;37392;50.964;6.952;2023-12-20T13:12:04;30.20;;;4.47;;
51304;SDS011;37392;50.964;6.952;2023-12-20T13:14:34;36.10;;;5.60;;
51304;SDS011;37392;50.964;6.952;2023-12-20T13:17:02;18.58;;;4.90;;
51304;SDS011;37392;50.964;6.952;2023-12-20T13:19:28;26.17;;;5.10;;
51304;SDS011;37392;50.964;6.952;2023-12-20T13:21:55;18.58;;;4.20;;
51304;SDS011;37392;50.964;6.952;2023-12-20T13:24:21;29.27;;;3.97;;
51304;SDS011;37392;50.964;6.952;2023-12-20T13:26:49;30.45;;;5.47;;
51304;SDS011;37392;50.964;6.952;2023-12-20T13:29:17;27.42;;;5.35;;
51304;SDS011;37392;50.964;6.952;2023-12-20T13:31:43;29.30;;;4.45;;
51304;SDS011;37392;50.964;6.952;2023-12-20T13:34:09;23.15;;;5.13;;
51304;SDS011;37392;50.964;6.952;2023-12-20T13:36:34;14.32;;;3.92;;
51304;SDS011;37392;50.964;6.952;2023-12-20T13:39:01;19.88;;;3.80;;
51304;SDS011;37392;50.964;6.952;2023-12-20T13:41:29;16.40;;;4.07;;
51304;SDS011;37392;50.964;6.952;2023-12-20T13:43:55;16.98;;;4.43;;
51304;SDS011;37392;50.964;6.952;2023-12-20T13:46:20;24.02;;;4.25;;
51304;SDS011;37392;50.964;6.952;2023-12-20T13:48:46;24.38;;;4.00;;
51304;SDS011;37392;50.964;6.952;2023-12-20T13:51:12;19.70;;;3.90;;
51304;SDS011;37392;50.964;6.952;2023-12-20T13:53:37;14.32;;;4.00;;
51304;SDS011;37392;50.964;6.952;2023-12-20T13:56:03;18.13;;;3.97;;
51304;SDS011;37392;50.964;6.952;2023-12-20T13:58:29;29.33;;;4.00;;
51304;SDS011;37392;50.964;6.952;2023-12-20T14:00:55;19.50;;;4.00;;
51304;SDS011;37392;50.964;6.952;2023-12-20T14:03:21;28.58;;;4.38;;
51304;SDS011;37392;50.964;6.952;2023-12-20T14:05:46;16.92;;;3.45;;
51304;SDS011;37392;50.964;6.952;2023-12-20T14:08:12;16.58;;;3.42;;
51304;SDS011;37392;50.964;6.952;2023-12-20T14:10:38;17.10;;;3.42;;
51304;SDS011;37392;50.964;6.952;2023-12-20T14:13:04;16.55;;;3.50;;
51304;SDS011;37392;50.964;6.952;2023-12-20T14:15:30;16.15;;;5.22;;
51304;SDS011;37392;50.964;6.952;2023-12-20T14:18:01;12.95;;;3.45;;
51304;SDS011;37392;50.964;6.952;2023-12-20T14:20:31;17.05;;;3.38;;
51304;SDS011;37392;50.964;6.952;2023-12-20T14:22:59;13.50;;;3.42;;
51304;SDS011;37392;50.964;6.952;2023-12-20T14:25:28;13.27;;;3.45;;
51304;SDS011;37392;50.964;6.952;2023-12-20T14:27:54;27.50;;;4.13;;
51304;SDS011;37392;50.964;6.952;2023-12-20T14:30:21;11.30;;;4.50;;
51304;SDS011;37392;50.964;6.952;2023-12-20T14:32:46;19.58;;;3.80;;
51304;SDS011;37392;50.964;6.952;2023-12-20T14:35:13;15.48;;;3.78;;
51304;SDS011;37392;50.964;6.952;2023-12-20T14:37:38;12.05;;;3.42;;
51304;SDS011;37392;50.964;6.952;2023-12-20T14:40:06;16.45;;;3.55;;